Time;durP1;ratioP1;P1;durP2;ratioP2;P2;SDS_P1;SDS_P2;PMS_P1;PMS_P2;Temp;Humidity;BMP_temperature;BMP_pressure;BME280_temperature;BME280_humidity;BME280_pressure;Samples;Min_cycle;Max_cycle;Signal;HPM_P1;HPM_P2
2023/08/01 00:02:33;;;;;;;;;;;23.40;54.00;;;22.54;53.89;99796.03;12251715;19;19915;-85
2023/08/01 00:06:35;;;;;;;;;;;23.40;54.20;;;22.54;53.63;99796.03;12249402;19;19922;-83
2023/08/01 00:10:36;;;;;;;;;;;23.30;54.30;;;22.35;53.85;99764.69;12251207;19;20344;-83
2023/08/01 00:14:37;;;;;;;;;;;23.30;54.20;;;22.45;54.13;99785.72;12249280;19;19915;-84
2023/08/01 00:18:39;;;;;;;;;;;23.20;54.20;;;22.17;53.69;99745.59;12250168;19;20261;-84
2023/08/01 00:22:40;;;;;;;;;;;23.20;54.80;;;22.28;53.90;99775.25;12249882;19;20341;-84
2023/08/01 00:26:42;;;;;;;;;;;23.10;55.10;;;22.19;54.02;99771.03;12248627;19;19940;-84
2023/08/01 00:30:43;;;;;;;;;;;23.00;54.90;;;22.16;54.13;99767.88;12248577;19;19914;-84
2023/08/01 00:34:44;;;;;;;;;;;23.00;55.00;;;22.05;53.95;99747.91;12247064;19;19919;-84
2023/08/01 00:49:08;;;;;;;;;;;22.80;55.60;;;21.87;54.02;99735.81;12248172;19;19934;-85
2023/08/01 00:53:09;;;;;;;;;;;22.70;55.40;;;21.91;53.98;99740.75;12247222;19;19936;-84
2023/08/01 00:57:11;;;;;;;;;;;22.70;55.30;;;21.89;54.06;99730.28;12247645;19;19914;-84
2023/08/01 01:01:12;;;;;;;;;;;22.60;56.20;;;21.75;54.12;99701.88;12248989;19;19944;-84
2023/08/01 01:05:15;;;;;;;;;;;22.60;55.60;;;21.76;54.40;99695.53;12246170;19;21302;-85
2023/08/01 01:09:20;;;;;;;;;;;22.50;55.50;;;21.73;54.17;99698.56;12243589;19;20666;-85
2023/08/01 01:13:22;;;;;;;;;;;22.50;55.90;;;21.66;53.82;99693.16;12245139;19;19914;-85
2023/08/01 01:17:23;;;;;;;;;;;22.40;55.50;;;21.50;54.18;99666.78;12240918;19;19926;-85
2023/08/01 01:21:26;;;;;;;;;;;22.40;56.20;;;21.63;54.57;99685.56;12247536;19;19926;-85
2023/08/01 01:25:28;;;;;;;;;;;22.40;55.90;;;21.38;54.52;99645.13;12245444;19;20008;-85
2023/08/01 01:29:30;;;;;;;;;;;22.30;56.30;;;21.48;54.66;99656.31;12246679;19;19919;-86
2023/08/01 01:33:32;;;;;;;;;;;22.30;56.40;;;21.54;54.56;99658.22;12243805;19;19911;-85
2023/08/01 01:37:34;;;;;;;;;;;22.30;56.60;;;21.41;54.72;99612.88;12242244;19;19978;-85
2023/08/01 01:41:35;;;;;;;;;;;22.20;56.20;;;21.48;54.74;99629.75;12247248;19;19974;-86
2023/08/01 01:45:37;;;;;;;;;;;22.20;56.20;;;21.40;54.69;99616.56;12245244;19;19923;-85
2023/08/01 01:49:38;;;;;;;;;;;22.20;56.80;;;21.42;54.62;99614.53;12246437;19;19998;-85
2023/08/01 01:53:40;;;;;;;;;;;22.20;57.00;;;21.35;54.70;99605.63;12242194;19;20276;-86
2023/08/01 01:57:42;;;;;;;;;;;22.20;56.90;;;21.39;54.74;99618.38;12247364;19;19918;-85
2023/08/01 02:01:44;;;;;;;;;;;22.10;56.90;;;21.40;54.54;99617.38;12258521;19;20443;-85
2023/08/01 02:05:45;;;;;;;;;;;22.10;57.20;;;21.35;54.61;99614.41;12254814;19;20014;-86
2023/08/01 02:09:47;;;;;;;;;;;22.10;57.80;;;21.28;54.52;99591.41;12255194;19;19923;-86
2023/08/01 02:13:49;;;;;;;;;;;22.10;57.00;;;21.26;55.00;99574.84;12253887;19;19915;-85
2023/08/01 02:17:51;;;;;;;;;;;22.00;57.80;;;21.21;54.58;99557.63;12252277;19;20269;-86
2023/08/01 02:21:53;;;;;;;;;;;22.00;57.60;;;21.21;54.96;99565.59;12256152;19;19910;-85
2023/08/01 02:25:55;;;;;;;;;;;22.00;57.80;;;21.18;54.86;99565.97;12253160;19;20286;-85
2023/08/01 02:29:58;;;;;;;;;;;22.00;56.90;;;20.94;55.27;99513.13;12255100;19;19911;-85
2023/08/01 02:33:59;;;;;;;;;;;21.90;57.60;;;21.17;55.27;99552.84;12252714;19;19911;-86
2023/08/01 02:38:03;;;;;;;;;;;21.90;58.00;;;21.19;55.17;99553.50;12251155;19;20362;-85
2023/08/01 02:42:04;;;;;;;;;;;21.90;57.60;;;21.12;54.96;99532.19;12256184;19;20577;-85
2023/08/01 02:46:06;;;;;;;;;;;21.90;57.10;;;21.10;54.95;99534.19;12254602;19;19916;-86
2023/08/01 02:50:08;;;;;;;;;;;21.90;57.40;;;21.13;54.96;99544.44;12254765;19;19987;-86
2023/08/01 02:54:09;;;;;;;;;;;21.90;57.00;;;21.22;55.20;99537.19;12253939;19;20349;-86
2023/08/01 02:58:11;;;;;;;;;;;21.90;58.60;;;21.17;55.06;99531.59;12251374;19;19994;-85
2023/08/01 03:02:13;;;;;;;;;;;22.00;57.50;;;21.13;55.39;99530.34;12256099;19;19915;-85
2023/08/01 03:06:15;;;;;;;;;;;21.90;58.20;;;21.17;55.29;99527.16;12253485;19;19915;-85
2023/08/01 03:10:17;;;;;;;;;;;22.00;57.40;;;20.98;55.22;99499.31;12252461;19;19918;-86
2023/08/01 03:14:18;;;;;;;;;;;21.90;57.30;;;21.09;55.34;99492.72;12251435;19;19937;-85
2023/08/01 03:18:20;;;;;;;;;;;21.90;58.40;;;21.15;55.33;99502.59;12250000;19;19925;-85
2023/08/01 03:22:22;;;;;;;;;;;21.90;57.60;;;21.07;55.70;99497.38;12251561;19;19923;-85
2023/08/01 03:26:23;;;;;;;;;;;21.90;57.30;;;21.12;55.26;99497.66;12248850;19;19915;-85
2023/08/01 03:30:25;;;;;;;;;;;21.90;57.80;;;21.10;55.17;99491.72;12251197;19;19942;-85
2023/08/01 03:34:29;;;;;;;;;;;21.90;57.40;;;21.10;55.45;99478.44;12247522;19;19939;-85
2023/08/01 03:38:30;;;;;;;;;;;21.90;58.10;;;20.90;55.32;99450.78;12245491;19;19918;-85
2023/08/01 03:42:32;;;;;;;;;;;21.90;58.40;;;21.05;55.44;99467.53;12249545;19;19918;-86
2023/08/01 03:46:33;;;;;;;;;;;21.90;57.50;;;21.04;55.37;99457.94;12248000;19;19946;-85
2023/08/01 03:50:35;;;;;;;;;;;21.90;57.90;;;21.10;55.58;99464.34;12250123;19;19941;-85
2023/08/01 03:54:37;;;;;;;;;;;21.90;57.30;;;21.11;55.34;99477.41;12246051;19;20345;-85
2023/08/01 03:58:38;;;;;;;;;;;21.90;57.50;;;21.07;55.40;99467.38;12249381;19;20256;-85
2023/08/01 04:02:42;;;;;;;;;;;21.90;58.00;;;20.99;55.70;99449.69;12244906;19;20301;-91
2023/08/01 04:06:44;;;;;;;;;;;21.90;57.80;;;20.97;55.36;99446.41;12247615;19;19923;-90
2023/08/01 04:10:45;;;;;;;;;;;21.80;57.40;;;20.98;55.44;99453.34;12244273;19;20399;-90
2023/08/01 04:14:47;;;;;;;;;;;21.90;57.70;;;20.61;55.74;99394.06;12236324;19;19982;-90
2023/08/01 04:18:49;;;;;;;;;;;21.80;57.50;;;21.06;55.87;99457.75;12247612;19;20769;-90
2023/08/01 04:22:50;;;;;;;;;;;21.90;57.60;;;21.03;55.55;99450.97;12244845;19;20029;-90
2023/08/01 04:26:52;;;;;;;;;;;21.90;57.60;;;20.94;55.87;99422.88;12243991;19;21522;-90
2023/08/01 04:30:54;;;;;;;;;;;21.90;57.20;;;21.11;55.92;99455.34;12247880;19;20654;-90
2023/08/01 04:34:55;;;;;;;;;;;21.90;57.20;;;21.06;55.99;99442.63;12240739;19;19922;-90
2023/08/01 04:38:59;;;;;;;;;;;21.90;58.10;;;21.09;55.64;99450.25;12246213;19;19919;-90
2023/08/01 04:43:01;;;;;;;;;;;21.90;57.90;;;21.12;55.75;99449.88;12246526;19;19914;-89
2023/08/01 04:47:03;;;;;;;;;;;21.90;58.10;;;21.06;56.08;99417.91;12245548;19;19918;-90
2023/08/01 04:51:04;;;;;;;;;;;21.90;58.00;;;21.11;55.94;99418.19;12246801;19;19926;-90
2023/08/01 04:55:06;;;;;;;;;;;22.00;57.60;;;21.14;55.81;99417.81;12245954;19;19950;-91
2023/08/01 04:59:07;;;;;;;;;;;22.00;58.80;;;21.20;56.08;99412.59;12248728;19;20004;-91
2023/08/01 05:03:10;;;;;;;;;;;22.00;58.10;;;21.26;55.73;99410.22;12247988;19;19982;-90
2023/08/01 05:07:11;;;;;;;;;;;22.00;58.10;;;21.21;55.86;99400.16;12244187;19;19977;-89
2023/08/01 05:11:13;;;;;;;;;;;22.10;58.10;;;21.26;55.88;99403.06;12245896;19;19919;-90
2023/08/01 05:15:14;;;;;;;;;;;22.10;57.90;;;21.01;56.26;99368.06;12247908;19;19917;-89
2023/08/01 05:19:16;;;;;;;;;;;22.10;58.20;;;21.23;56.19;99386.69;12246167;19;20371;-89
2023/08/01 05:23:17;;;;;;;;;;;22.10;58.10;;;21.25;55.88;99398.75;12248620;19;19919;-88
2023/08/01 05:27:19;;;;;;;;;;;22.10;58.00;;;21.19;56.30;99381.72;12245811;19;19918;-87
2023/08/01 05:31:20;;;;;;;;;;;22.10;58.50;;;21.04;56.17;99346.44;12246234;19;19911;-87
2023/08/01 05:35:21;;;;;;;;;;;22.10;58.10;;;21.23;56.44;99376.06;12257589;19;20376;-87
2023/08/01 05:39:23;;;;;;;;;;;22.10;58.20;;;21.17;56.31;99365.19;12260065;19;20370;-88
2023/08/01 05:43:25;;;;;;;;;;;22.10;58.30;;;21.26;55.97;99357.94;12261314;19;19922;-87
2023/08/01 05:47:27;;;;;;;;;;;22.10;57.90;;;21.20;56.12;99356.03;12257327;19;19911;-88
2023/08/01 05:51:28;;;;;;;;;;;22.00;58.20;;;21.25;56.18;99358.09;12259663;19;19914;-88
2023/08/01 05:55:30;;;;;;;;;;;22.10;59.80;;;21.10;56.21;99348.34;12256221;19;20285;-88
2023/08/01 05:59:32;;;;;;;;;;;22.10;58.60;;;21.16;56.41;99349.44;12263465;19;19910;-88
2023/08/01 06:03:33;;;;;;;;;;;22.10;58.30;;;21.12;56.14;99337.56;12260317;19;20283;-88
2023/08/01 06:07:34;;;;;;;;;;;22.10;59.80;;;21.10;56.20;99334.25;12260389;19;20305;-86
2023/08/01 06:11:36;;;;;;;;;;;22.00;58.40;;;21.25;56.49;99360.75;12261572;19;19923;-87
2023/08/01 06:15:37;;;;;;;;;;;22.10;58.40;;;21.24;56.19;99356.47;12261785;19;19923;-87
2023/08/01 06:19:39;;;;;;;;;;;22.00;58.90;;;21.21;56.64;99350.50;12262093;19;19918;-86
2023/08/01 06:23:41;;;;;;;;;;;22.10;59.50;;;21.16;56.48;99346.78;12259856;19;19922;-87
2023/08/01 06:27:42;;;;;;;;;;;22.10;59.10;;;21.21;56.60;99353.16;12257577;19;19935;-88
2023/08/01 06:31:44;;;;;;;;;;;22.00;59.10;;;21.24;56.50;99359.13;12260010;19;19949;-88
2023/08/01 06:35:45;;;;;;;;;;;22.10;58.60;;;21.11;56.50;99330.59;12259151;19;19919;-88
2023/08/01 06:39:47;;;;;;;;;;;22.10;59.00;;;21.29;56.42;99354.91;12260728;19;19962;-87
2023/08/01 06:43:48;;;;;;;;;;;22.10;59.30;;;21.24;56.47;99335.22;12257312;19;19951;-88
2023/08/01 06:47:50;;;;;;;;;;;22.10;59.00;;;21.29;56.85;99341.63;12254740;19;19922;-88
2023/08/01 06:51:51;;;;;;;;;;;22.10;59.00;;;21.28;56.62;99337.31;12257222;19;20249;-88
2023/08/01 06:55:53;;;;;;;;;;;22.10;58.70;;;21.26;56.59;99327.91;12257763;19;19919;-89
2023/08/01 06:59:54;;;;;;;;;;;22.10;58.60;;;21.30;56.62;99335.28;12255223;19;19923;-89
2023/08/01 07:03:56;;;;;;;;;;;22.10;59.10;;;21.31;56.51;99330.81;12250638;19;19931;-88
2023/08/01 07:07:58;;;;;;;;;;;22.20;59.00;;;21.39;56.70;99338.69;12252418;19;20023;-89
2023/08/01 07:11:59;;;;;;;;;;;22.20;58.70;;;21.40;56.84;99340.31;12253497;19;19956;-84
2023/08/01 07:16:02;;;;;;;;;;;22.20;58.40;;;21.41;56.77;99339.31;12250683;19;19923;-85
2023/08/01 07:20:04;;;;;;;;;;;22.20;58.60;;;21.39;56.54;99341.34;12250216;19;19915;-84
2023/08/01 07:24:06;;;;;;;;;;;22.20;58.50;;;21.27;56.62;99319.72;12249126;19;19982;-85
2023/08/01 07:28:07;;;;;;;;;;;22.30;58.20;;;21.39;56.92;99322.75;12246333;19;19994;-85
2023/08/01 07:32:09;;;;;;;;;;;22.30;58.90;;;21.40;56.65;99319.09;12250253;19;19927;-84
2023/08/01 07:36:10;;;;;;;;;;;22.30;58.90;;;21.46;56.68;99323.63;12246731;19;20342;-85
2023/08/01 07:40:12;;;;;;;;;;;22.30;58.70;;;21.26;56.95;99296.03;12253525;19;19915;-85
2023/08/01 07:44:13;;;;;;;;;;;22.30;59.40;;;21.35;56.90;99306.31;12249931;19;20718;-85
2023/08/01 07:48:14;;;;;;;;;;;22.30;58.60;;;21.45;57.15;99305.25;12250252;19;19918;-85
2023/08/01 07:52:16;;;;;;;;;;;22.30;58.90;;;21.36;56.97;99284.09;12252468;19;19948;-85
2023/08/01 07:56:18;;;;;;;;;;;22.30;58.90;;;21.43;56.72;99292.13;12247103;19;20353;-85
2023/08/01 08:00:19;;;;;;;;;;;22.30;59.70;;;21.42;56.83;99303.78;12248614;19;20281;-85
2023/08/01 08:04:20;;;;;;;;;;;22.30;60.10;;;21.41;56.78;99307.44;12253981;19;19918;-85
2023/08/01 08:08:22;;;;;;;;;;;22.40;59.20;;;21.52;56.91;99312.25;12247942;19;19923;-85
2023/08/01 08:12:23;;;;;;;;;;;22.40;59.10;;;21.61;56.94;99315.59;12250777;19;19926;-85
2023/08/01 08:16:25;;;;;;;;;;;22.40;58.90;;;21.64;57.32;99305.41;12236601;19;19915;-85
2023/08/01 08:20:26;;;;;;;;;;;22.50;58.90;;;21.69;57.33;99299.53;12250573;19;19935;-86
2023/08/01 08:24:28;;;;;;;;;;;22.60;59.60;;;21.81;56.93;99307.78;12252694;19;19929;-84
2023/08/01 08:28:30;;;;;;;;;;;22.60;59.20;;;21.74;56.93;99294.47;12244018;19;19919;-86
2023/08/01 08:32:32;;;;;;;;;;;22.70;59.40;;;21.79;57.07;99283.22;12239171;19;20006;-85
2023/08/01 08:36:33;;;;;;;;;;;22.80;59.50;;;22.02;57.04;99307.75;12243871;19;20343;-86
2023/08/01 08:40:43;;;;;;;;;;;22.80;59.00;;;21.97;56.95;99283.56;12244052;19;20215;-86
2023/08/01 08:44:48;;;;;;;;;;;22.90;59.40;;;21.94;57.23;99273.34;12242635;19;20404;-85
2023/08/01 08:48:50;;;;;;;;;;;23.00;59.10;;;22.07;56.92;99285.91;12247828;19;19943;-85
2023/08/01 08:52:52;;;;;;;;;;;23.00;60.10;;;22.13;57.18;99279.78;12246755;19;19927;-84
2023/08/01 08:56:54;;;;;;;;;;;23.00;59.60;;;22.04;57.25;99257.06;12247434;19;19919;-84
2023/08/01 09:00:55;;;;;;;;;;;23.10;59.40;;;22.30;57.38;99286.50;12249792;19;19922;-85
2023/08/01 09:04:57;;;;;;;;;;;23.20;59.40;;;22.23;57.12;99260.88;12249411;19;19967;-85
2023/08/01 09:09:08;;;;;;;;;;;23.30;59.10;;;22.52;57.10;99292.53;12246279;19;19925;-85
2023/08/01 09:13:10;;;;;;;;;;;23.40;59.60;;;22.57;57.52;99286.59;12250711;19;19987;-85
2023/08/01 09:17:11;;;;;;;;;;;23.40;59.00;;;22.69;57.06;99297.53;12246113;19;19943;-85
2023/08/01 09:21:13;;;;;;;;;;;23.50;59.00;;;22.68;57.21;99280.75;12249862;19;20594;-84
2023/08/01 09:25:14;;;;;;;;;;;23.60;59.00;;;22.81;57.52;99290.59;12250270;19;19970;-85
2023/08/01 09:29:17;;;;;;;;;;;23.70;58.90;;;22.79;57.24;99270.50;12249612;19;20381;-84
2023/08/01 09:33:18;;;;;;;;;;;23.80;58.80;;;22.82;57.50;99244.34;12244075;19;19914;-85
2023/08/01 09:37:20;;;;;;;;;;;23.90;58.90;;;22.85;57.32;99238.59;12246345;19;19918;-85
2023/08/01 09:41:21;;;;;;;;;;;23.90;58.50;;;23.07;57.47;99251.78;12241395;19;19937;-85
2023/08/01 09:45:23;;;;;;;;;;;24.00;58.50;;;23.24;57.18;99252.22;12243563;19;19915;-86
2023/08/01 09:49:25;;;;;;;;;;;24.10;58.70;;;23.36;57.19;99254.09;12242744;19;19911;-85
2023/08/01 09:53:26;;;;;;;;;;;24.30;58.50;;;23.39;57.56;99240.34;12245710;19;20326;-85
2023/08/01 09:57:29;;;;;;;;;;;24.40;58.00;;;23.64;57.31;99275.19;12243988;19;19914;-85
2023/08/01 10:01:32;;;;;;;;;;;24.60;57.70;;;23.61;57.39;99269.47;12246482;19;20249;-86
2023/08/01 10:05:35;;;;;;;;;;;24.60;57.30;;;23.63;57.46;99278.09;12245977;19;19943;-85
2023/08/01 10:09:37;;;;;;;;;;;24.70;57.00;;;23.68;57.14;99286.25;12247928;19;19911;-85
2023/08/01 10:13:41;;;;;;;;;;;24.70;56.70;;;23.66;57.19;99283.00;12248659;19;19911;-86
2023/08/01 10:17:44;;;;;;;;;;;24.60;56.20;;;23.44;57.30;99247.75;12247212;19;19938;-86
2023/08/01 10:21:47;;;;;;;;;;;24.70;56.60;;;23.61;57.22;99269.47;12253447;19;19918;-85
2023/08/01 10:25:48;;;;;;;;;;;24.60;56.60;;;23.58;57.05;99262.69;12255721;19;19952;-85
2023/08/01 10:30:00;;;;;;;;;;;24.60;56.60;;;23.70;56.71;99273.56;12258205;19;19910;-85
2023/08/01 10:34:07;;;;;;;;;;;24.70;56.20;;;23.73;56.92;99272.34;12256428;19;19918;-85
2023/08/01 10:38:12;;;;;;;;;;;24.70;56.50;;;23.73;57.01;99269.69;12256618;19;19933;-84
2023/08/01 10:42:13;;;;;;;;;;;24.70;56.60;;;23.78;56.92;99268.03;12257174;19;19907;-85
2023/08/01 10:46:15;;;;;;;;;;;24.70;56.30;;;23.74;57.05;99261.50;12256179;19;19914;-85
2023/08/01 10:50:17;;;;;;;;;;;24.70;56.40;;;23.61;56.98;99240.16;12259765;19;19986;-85
2023/08/01 10:54:22;;;;;;;;;;;24.70;56.40;;;23.85;57.13;99274.19;12255978;19;19919;-89
2023/08/01 10:58:27;;;;;;;;;;;24.70;56.50;;;23.88;56.94;99277.47;12253776;19;19919;-90
2023/08/01 11:02:30;;;;;;;;;;;24.70;56.30;;;23.83;56.79;99257.56;12256199;19;19933;-88
2023/08/01 11:06:31;;;;;;;;;;;24.80;56.00;;;23.82;57.00;99260.47;12252541;19;19993;-90
2023/08/01 11:10:37;;;;;;;;;;;24.80;55.90;;;23.78;57.03;99267.22;12253962;19;19945;-90
2023/08/01 11:14:39;;;;;;;;;;;24.80;56.00;;;23.81;56.71;99275.63;12250507;19;19911;-90
2023/08/01 11:18:42;;;;;;;;;;;24.70;55.60;;;23.82;56.86;99271.94;12243648;19;19926;-90
2023/08/01 11:22:51;;;;;;;;;;;24.70;55.50;;;23.87;57.07;99289.16;12252285;19;19967;-89
2023/08/01 11:26:54;;;;;;;;;;;24.70;55.90;;;23.86;56.47;99301.69;12250098;19;20337;-89
2023/08/01 11:30:55;;;;;;;;;;;24.80;55.90;;;23.82;56.41;99325.28;12248733;19;19982;-89
2023/08/01 11:34:56;;;;;;;;;;;24.70;56.30;;;23.67;56.34;99332.59;12244467;19;20267;-89
2023/08/01 11:38:59;;;;;;;;;;;24.70;56.00;;;23.53;56.41;99326.44;12250255;19;20486;-88
2023/08/01 11:43:01;;;;;;;;;;;24.50;56.00;;;23.39;56.81;99325.63;12246526;19;20344;-90
2023/08/01 11:47:03;;;;;;;;;;;24.40;56.10;;;23.30;56.43;99326.81;12247431;19;19937;-89
2023/08/01 11:51:05;;;;;;;;;;;24.30;56.30;;;23.25;56.43;99339.09;12249221;19;19958;-89
2023/08/01 11:55:06;;;;;;;;;;;24.10;56.40;;;23.19;56.74;99341.53;12247503;19;19928;-89
2023/08/01 11:59:16;;;;;;;;;;;24.00;56.60;;;23.07;56.48;99323.69;12251797;19;19919;-88
2023/08/01 12:03:17;;;;;;;;;;;23.90;56.70;;;23.01;56.46;99320.00;12248504;19;19919;-88
2023/08/01 12:07:19;;;;;;;;;;;23.90;56.90;;;23.02;56.79;99350.09;12249478;19;19939;-87
2023/08/01 12:11:23;;;;;;;;;;;23.80;56.90;;;22.89;56.37;99346.31;12254009;19;20326;-88
2023/08/01 12:15:24;;;;;;;;;;;23.70;57.00;;;22.90;56.50;99349.78;12251949;19;19918;-89
2023/08/01 12:19:25;;;;;;;;;;;23.70;57.10;;;22.85;56.69;99334.44;12251437;19;19919;-88
2023/08/01 12:23:27;;;;;;;;;;;23.60;57.10;;;22.85;56.55;99329.13;12258212;19;19915;-88
2023/08/01 12:27:29;;;;;;;;;;;23.60;57.30;;;22.96;56.72;99346.41;12252968;19;19923;-89
2023/08/01 12:31:31;;;;;;;;;;;23.70;57.50;;;22.96;56.72;99352.53;12252909;19;19925;-88
2023/08/01 12:35:33;;;;;;;;;;;23.70;57.40;;;22.99;56.78;99339.84;12255996;19;19930;-87
2023/08/01 12:39:34;;;;;;;;;;;23.70;57.30;;;22.95;56.88;99340.22;12245140;19;19922;-86
2023/08/01 12:43:36;;;;;;;;;;;23.70;57.20;;;22.99;56.90;99337.19;12256362;19;19924;-85
2023/08/01 12:47:37;;;;;;;;;;;23.70;57.40;;;22.93;56.81;99323.63;12254463;19;20254;-87
2023/08/01 12:51:39;;;;;;;;;;;23.80;57.40;;;23.12;56.82;99347.88;12254882;19;19935;-87
2023/08/01 12:55:44;;;;;;;;;;;23.80;57.50;;;23.01;56.95;99330.66;12254897;19;19938;-86
2023/08/01 12:59:46;;;;;;;;;;;23.90;57.30;;;23.10;56.66;99349.91;12253806;19;19986;-87
2023/08/01 13:03:48;;;;;;;;;;;23.90;57.10;;;23.12;56.68;99345.22;12251991;19;19914;-87
2023/08/01 13:07:49;;;;;;;;;;;24.00;57.10;;;23.20;56.78;99350.38;12251335;19;19929;-87
2023/08/01 13:11:51;;;;;;;;;;;24.00;57.10;;;23.22;56.56;99350.97;12254536;19;19915;-86
2023/08/01 13:15:53;;;;;;;;;;;24.00;57.00;;;23.28;57.01;99360.03;12255676;19;19926;-86
2023/08/01 13:19:54;;;;;;;;;;;24.10;56.90;;;23.36;56.99;99360.66;12255706;19;20259;-87
2023/08/01 13:23:55;;;;;;;;;;;24.10;56.90;;;23.32;56.89;99345.25;12254802;19;19930;-87
2023/08/01 13:27:57;;;;;;;;;;;24.20;57.00;;;23.46;56.97;99365.56;12251144;19;20326;-87
2023/08/01 13:31:58;;;;;;;;;;;24.30;56.90;;;23.52;56.96;99366.63;12255157;19;19919;-87
2023/08/01 13:36:00;;;;;;;;;;;24.30;56.90;;;23.58;56.82;99358.66;12254227;19;19926;-87
2023/08/01 13:40:01;;;;;;;;;;;24.40;56.50;;;23.65;56.53;99361.31;12247171;19;19929;-87
2023/08/01 13:44:03;;;;;;;;;;;24.50;56.60;;;23.74;56.84;99369.97;12251944;19;19938;-86
2023/08/01 13:48:05;;;;;;;;;;;24.60;56.70;;;23.82;56.53;99370.59;12246891;19;19934;-87
2023/08/01 13:52:06;;;;;;;;;;;24.70;56.50;;;23.80;56.58;99364.63;12249798;19;19919;-87
2023/08/01 13:56:11;;;;;;;;;;;24.70;56.20;;;23.91;56.96;99370.41;12262484;19;20154;-87
2023/08/01 14:00:13;;;;;;;;;;;24.80;56.40;;;24.02;56.68;99378.59;12264366;19;19919;-87
2023/08/01 14:04:17;;;;;;;;;;;24.90;56.20;;;24.09;56.44;99386.59;12263517;19;19952;-87
2023/08/01 14:08:18;;;;;;;;;;;24.90;56.00;;;24.05;56.82;99364.03;12256459;19;19919;-88
2023/08/01 14:12:21;;;;;;;;;;;25.00;55.80;;;24.18;56.90;99366.69;12261537;19;19961;-88
2023/08/01 14:16:23;;;;;;;;;;;25.10;55.90;;;24.06;56.66;99325.66;12260383;19;19922;-88
2023/08/01 14:20:25;;;;;;;;;;;25.10;55.90;;;24.36;56.70;99359.88;12261207;19;19922;-87
2023/08/01 14:24:26;;;;;;;;;;;25.30;55.70;;;24.40;56.67;99364.59;12257267;19;20645;-88
2023/08/01 14:28:27;;;;;;;;;;;25.30;55.50;;;24.37;56.47;99350.88;12258458;19;19926;-88
2023/08/01 14:32:29;;;;;;;;;;;25.30;55.40;;;24.38;56.55;99347.97;12259736;19;19939;-87
2023/08/01 14:36:30;;;;;;;;;;;25.40;55.40;;;24.49;56.86;99363.41;12260151;19;19922;-87
2023/08/01 14:40:34;;;;;;;;;;;25.40;55.50;;;24.56;56.48;99374.03;12261607;19;20306;-88
2023/08/01 14:44:35;;;;;;;;;;;25.50;55.70;;;24.60;56.18;99367.28;12262730;19;19915;-88
2023/08/01 14:48:37;;;;;;;;;;;25.60;55.50;;;24.76;56.13;99373.16;12260949;19;19925;-89
2023/08/01 14:52:40;;;;;;;;;;;25.60;55.10;;;24.73;56.03;99355.72;12260575;19;19922;-87
2023/08/01 14:56:41;;;;;;;;;;;25.70;54.60;;;24.86;56.22;99376.22;12259866;19;19922;-87
2023/08/01 15:00:43;;;;;;;;;;;25.70;55.00;;;24.70;56.18;99350.81;12263828;19;20264;-87
2023/08/01 15:04:44;;;;;;;;;;;25.80;54.60;;;24.87;56.33;99380.53;12256412;19;19927;-88
2023/08/01 15:08:46;;;;;;;;;;;25.80;54.00;;;24.81;56.38;99362.69;12261582;19;20052;-87
2023/08/01 15:12:47;;;;;;;;;;;25.80;54.30;;;24.84;55.83;99364.91;12258930;19;19923;-88
2023/08/01 15:16:49;;;;;;;;;;;25.90;54.60;;;25.00;56.19;99395.69;12258313;19;19974;-88
2023/08/01 15:20:50;;;;;;;;;;;26.00;54.70;;;25.03;56.11;99398.75;12258026;19;19923;-87
2023/08/01 15:24:51;;;;;;;;;;;26.00;53.70;;;24.85;55.65;99361.25;12260992;19;19927;-87
2023/08/01 15:28:53;;;;;;;;;;;26.00;53.00;;;24.99;55.56;99381.50;12260317;19;19938;-88
2023/08/01 15:32:54;;;;;;;;;;;26.00;52.80;;;24.99;55.53;99396.72;12255617;19;19915;-87
2023/08/01 15:36:55;;;;;;;;;;;25.90;53.40;;;24.99;55.44;99416.25;12257993;19;19903;-88
2023/08/01 15:40:57;;;;;;;;;;;25.90;53.70;;;24.94;55.63;99416.03;12256119;19;19947;-88
2023/08/01 15:44:59;;;;;;;;;;;25.90;53.20;;;24.81;55.72;99432.91;12258783;19;20624;-88
2023/08/01 15:49:00;;;;;;;;;;;25.80;53.50;;;24.72;55.62;99463.56;12262338;19;19947;-86
2023/08/01 15:53:02;;;;;;;;;;;25.80;53.40;;;24.63;55.07;99503.00;12259693;19;19940;-87
2023/08/01 15:57:03;;;;;;;;;;;25.60;53.70;;;24.31;55.15;99501.13;12257214;19;19936;-86
2023/08/01 16:01:07;;;;;;;;;;;25.40;53.80;;;23.94;55.44;99479.31;12250129;19;19934;-88
2023/08/01 16:05:09;;;;;;;;;;;25.10;53.90;;;23.72;55.46;99471.47;12251268;19;19926;-88
2023/08/01 16:09:11;;;;;;;;;;;24.80;54.10;;;23.66;55.54;99495.44;12250418;19;19911;-88
2023/08/01 16:13:12;;;;;;;;;;;24.50;54.30;;;23.45;55.47;99472.38;12252570;19;19915;-88
2023/08/01 16:17:14;;;;;;;;;;;24.30;54.50;;;23.44;55.36;99481.38;12248365;19;19948;-89
2023/08/01 16:21:15;;;;;;;;;;;24.20;54.80;;;23.24;55.37;99465.31;12252270;19;19915;-89
2023/08/01 16:25:16;;;;;;;;;;;24.00;54.90;;;23.29;55.14;99490.34;12249549;19;19921;-89
2023/08/01 16:29:18;;;;;;;;;;;24.00;55.10;;;23.08;55.41;99466.47;12251385;19;19911;-89
2023/08/01 16:33:19;;;;;;;;;;;23.90;55.30;;;23.16;55.21;99488.44;12247874;19;19919;-88
2023/08/01 16:37:21;;;;;;;;;;;23.80;55.50;;;23.05;55.17;99466.88;12249230;19;19915;-89
2023/08/01 16:41:22;;;;;;;;;;;23.80;55.80;;;23.12;55.14;99486.38;12250618;19;19918;-89
2023/08/01 16:45:24;;;;;;;;;;;23.80;56.00;;;23.23;55.41;99491.13;12249553;19;19907;-88
2023/08/01 16:49:25;;;;;;;;;;;23.80;56.20;;;23.28;55.25;99494.03;12250406;19;19926;-88
2023/08/01 16:53:30;;;;;;;;;;;23.80;56.30;;;23.16;55.56;99472.44;12248070;19;19919;-88
2023/08/01 16:57:31;;;;;;;;;;;23.80;56.30;;;23.28;55.48;99493.22;12245736;19;19915;-89
2023/08/01 17:01:33;;;;;;;;;;;23.90;56.40;;;23.05;55.02;99464.19;12249379;19;19998;-88
2023/08/01 17:05:34;;;;;;;;;;;23.90;56.40;;;23.03;55.27;99485.69;12248803;19;19919;-87
2023/08/01 17:09:36;;;;;;;;;;;23.80;56.20;;;22.86;55.22;99468.38;12250079;19;19918;-88
2023/08/01 17:13:37;;;;;;;;;;;23.80;56.00;;;23.02;55.15;99501.88;12251122;19;20016;-88
2023/08/01 17:17:38;;;;;;;;;;;23.80;56.10;;;22.73;55.42;99483.22;12247468;19;20408;-88
2023/08/01 17:21:42;;;;;;;;;;;23.70;56.00;;;22.89;55.31;99511.38;12251014;19;19975;-88
2023/08/01 17:25:44;;;;;;;;;;;23.70;56.10;;;22.86;55.19;99517.09;12246632;19;19918;-89
2023/08/01 17:29:46;;;;;;;;;;;23.70;56.20;;;22.86;55.42;99522.41;12257136;19;19919;-89
2023/08/01 17:33:47;;;;;;;;;;;23.70;56.20;;;22.79;55.64;99512.75;12255597;19;19910;-88
2023/08/01 17:37:49;;;;;;;;;;;23.60;56.20;;;22.58;55.28;99471.06;12256272;19;19919;-89
2023/08/01 17:41:53;;;;;;;;;;;23.60;56.20;;;22.98;55.17;99536.06;12259617;19;19914;-90
2023/08/01 17:45:54;;;;;;;;;;;23.60;56.20;;;22.93;55.16;99533.94;12259951;19;19949;-89
2023/08/01 17:49:55;;;;;;;;;;;23.60;56.20;;;22.92;55.21;99537.63;12264291;19;20322;-89
2023/08/01 17:53:56;;;;;;;;;;;23.60;56.20;;;22.68;55.36;99503.44;12259495;19;19919;-89
2023/08/01 17:57:58;;;;;;;;;;;23.60;56.30;;;22.73;55.54;99517.81;12258529;19;20349;-89
2023/08/01 18:01:59;;;;;;;;;;;23.60;56.30;;;22.88;55.41;99551.53;12261246;19;19919;-88
2023/08/01 18:06:12;;;;;;;;;;;23.50;56.30;;;22.80;55.21;99552.50;12260110;19;19944;-89
2023/08/01 18:10:14;;;;;;;;;;;23.50;56.30;;;22.67;55.56;99539.06;12260670;19;19947;-89
2023/08/01 18:14:16;;;;;;;;;;;23.50;56.30;;;22.77;55.37;99568.03;12257641;19;19942;-89
2023/08/01 18:18:18;;;;;;;;;;;23.50;56.30;;;22.73;55.63;99578.22;12257178;19;20382;-90
2023/08/01 18:22:20;;;;;;;;;;;23.40;56.30;;;22.64;55.71;99590.84;12258970;19;19918;-89
2023/08/01 18:26:23;;;;;;;;;;;23.40;56.10;;;22.54;55.72;99599.13;12259442;19;19910;-89
2023/08/01 18:30:28;;;;;;;;;;;23.20;56.00;;;22.45;55.77;99599.47;12261805;19;19923;-89